Cordoba, Spain
Current Conditions -  °F | °C
As of 8:00 AM on Friday 31 Oct 2014 (Local Time) from LEBA Reporting Station
Clear Clear  
Wind Chill: 50°   Ceiling: Unl
Heat Index: 50°   Visibility: 6mi
Dew Point: 45°   Wind: 2mph
Humidity: 82%   Direction: NA
Pressure: 30.15"   Gusts: NA
Location:  37.89°N, 4.78°W
Report Text: LEBA 310700Z VRB02KT CAVOK 10/07 Q1021
Loading
Personal Weather Stations






























Interactive Weather Map New forecast layout! Learn more

10-Day Weather Forecast

Advertisements
Track Severe Weather on mobile